Time;durP1;ratioP1;P1;durP2;ratioP2;P2;SDS_P1;SDS_P2;PMS_P1;PMS_P2;Temp;Humidity;BMP_temperature;BMP_pressure;BME280_temperature;BME280_humidity;BME280_pressure;Samples;Min_cycle;Max_cycle;Signal;HPM_P1;HPM_P2
2024/02/13 00:00:46;;;;;;;;;;;;;;;7.52;72.49;100092.16;7362711;19;20015;-61
2024/02/13 00:03:12;;;;;;;0.00;0.00;;;;;;;7.46;73.32;100089.69;7362324;19;20346;-61
2024/02/13 00:05:39;;;;;;;0.10;0.10;;;;;;;7.49;73.48;100097.41;7361511;19;20002;-61
2024/02/13 00:08:05;;;;;;;0.10;0.10;;;;;;;7.50;73.81;100093.94;7358968;19;20512;-61
2024/02/13 00:10:31;;;;;;;0.10;0.10;;;;;;;7.46;73.33;100089.69;7363292;19;20370;-61
2024/02/13 00:12:58;;;;;;;0.10;0.10;;;;;;;7.50;73.29;100099.16;7360067;19;20070;-60
2024/02/13 00:15:25;;;;;;;0.08;0.08;;;;;;;7.41;73.36;100088.94;7360943;19;20014;-60
2024/02/13 00:17:51;;;;;;;0.10;0.10;;;;;;;7.49;73.45;100092.22;7364542;19;20018;-60
2024/02/13 00:20:20;;;;;;;0.10;0.10;;;;;;;7.43;73.04;100092.34;7364142;19;20097;-60
2024/02/13 00:22:46;;;;;;;0.10;0.10;;;;;;;7.32;73.34;100077.84;7365043;19;20035;-60
2024/02/13 00:25:12;;;;;;;0.00;0.00;;;;;;;7.32;73.15;100078.72;7369051;19;20014;-61
2024/02/13 00:27:38;;;;;;;0.00;0.00;;;;;;;7.37;73.33;100082.06;7372378;19;20011;-60
2024/02/13 00:30:05;;;;;;;0.10;0.10;;;;;;;7.41;74.22;100099.31;7371713;19;20083;-61
2024/02/13 00:32:31;;;;;;;0.10;0.10;;;;;;;7.40;73.12;100107.13;7365621;19;20027;-61
2024/02/13 00:34:58;;;;;;;0.10;0.10;;;;;;;7.40;73.62;100113.19;7368641;19;20007;-61
2024/02/13 00:37:23;;;;;;;0.10;0.10;;;;;;;7.36;74.24;100116.72;7367770;19;20021;-60
2024/02/13 00:39:50;;;;;;;0.10;0.10;;;;;;;7.36;73.53;100121.06;7364223;19;20014;-61
2024/02/13 00:42:15;;;;;;;0.10;0.10;;;;;;;7.35;73.50;100125.41;7368198;19;20006;-61
2024/02/13 00:44:44;;;;;;;0.00;0.00;;;;;;;7.36;73.24;100119.34;7368123;19;20033;-61
2024/02/13 00:47:09;;;;;;;0.08;0.08;;;;;;;7.22;73.82;100097.94;7369086;19;20009;-61
2024/02/13 00:49:34;;;;;;;0.00;0.00;;;;;;;7.32;74.02;100120.28;7366129;19;20830;-61
2024/02/13 00:52:01;;;;;;;0.10;0.10;;;;;;;7.24;73.78;100106.56;7368336;19;20021;-60
2024/02/13 00:54:27;;;;;;;0.10;0.10;;;;;;;7.36;73.95;100116.72;7365762;19;20589;-61
2024/02/13 00:56:52;;;;;;;0.10;0.10;;;;;;;6.98;73.51;100053.38;7370298;19;20017;-61
2024/02/13 00:59:19;;;;;;;0.10;0.10;;;;;;;7.41;74.22;100119.25;7368272;19;20018;-61
2024/02/13 01:01:44;;;;;;;0.10;0.10;;;;;;;7.36;74.31;100116.72;7369668;19;20003;-61
2024/02/13 01:04:10;;;;;;;0.10;0.10;;;;;;;7.42;74.48;100126.16;7366400;19;20029;-61
2024/02/13 01:06:36;;;;;;;0.10;0.10;;;;;;;7.40;73.76;100118.41;7368963;19;20066;-60
2024/02/13 01:09:05;;;;;;;0.10;0.10;;;;;;;7.42;74.19;100120.94;7365312;19;20015;-61
2024/02/13 01:11:33;;;;;;;0.00;0.00;;;;;;;7.36;74.05;100106.34;7367784;19;20006;-61
2024/02/13 01:14:02;;;;;;;0.00;0.00;;;;;;;7.40;74.65;100130.50;7368554;19;20018;-61
2024/02/13 01:16:28;;;;;;;0.00;0.00;;;;;;;7.41;74.13;100129.63;7370206;19;20010;-59
2024/02/13 01:18:57;;;;;;;0.10;0.10;;;;;;;7.39;73.83;100132.25;7363974;19;20014;-61
2024/02/13 01:21:22;;;;;;;0.10;0.10;;;;;;;7.39;74.08;100129.66;7368205;19;20329;-61
2024/02/13 01:23:51;;;;;;;0.10;0.10;;;;;;;7.43;74.17;100126.09;7364242;19;20010;-61
2024/02/13 01:26:19;;;;;;;0.10;0.10;;;;;;;7.43;74.04;100128.72;7365753;19;20932;-61
2024/02/13 01:28:47;;;;;;;0.10;0.10;;;;;;;7.30;73.71;100101.28;7363499;19;20011;-61
2024/02/13 01:31:13;;;;;;;0.10;0.10;;;;;;;7.40;74.21;100115.78;7365339;19;20014;-61
2024/02/13 01:33:43;;;;;;;0.10;0.10;;;;;;;7.40;74.08;100110.59;7364996;19;20025;-61
2024/02/13 01:36:09;;;;;;;0.10;0.10;;;;;;;7.35;73.48;100102.03;7370389;19;20033;-60
2024/02/13 01:38:36;;;;;;;0.10;0.10;;;;;;;7.38;73.39;100109.75;7368070;19;20371;-61
2024/02/13 01:41:02;;;;;;;0.10;0.10;;;;;;;7.31;73.93;100097.78;7366926;19;20488;-61
2024/02/13 01:43:31;;;;;;;0.10;0.10;;;;;;;7.37;73.75;100107.19;7366679;19;20541;-61
2024/02/13 01:45:56;;;;;;;0.10;0.10;;;;;;;7.34;73.90;100097.72;7364486;19;20014;-60
2024/02/13 01:48:25;;;;;;;0.10;0.10;;;;;;;7.32;74.43;100104.69;7362070;19;20029;-60
2024/02/13 01:50:51;;;;;;;0.10;0.10;;;;;;;7.31;74.02;100105.56;7365648;19;20454;-61
2024/02/13 01:53:21;;;;;;;0.03;0.03;;;;;;;7.27;74.13;100101.31;7364502;19;20494;-61
2024/02/13 01:55:48;;;;;;;0.10;0.10;;;;;;;7.31;73.52;100102.13;7358762;19;20003;-61
2024/02/13 01:58:15;;;;;;;0.10;0.10;;;;;;;7.28;73.48;100105.63;7369077;19;20149;-61
2024/02/13 02:00:42;;;;;;;0.10;0.10;;;;;;;7.24;74.25;100096.16;7365751;19;20024;-61
2024/02/13 02:03:11;;;;;;;0.05;0.05;;;;;;;7.34;73.97;100115.88;7367908;19;20010;-61
2024/02/13 02:05:36;;;;;;;0.00;0.00;;;;;;;7.30;74.10;100111.66;7365994;19;19991;-62
2024/02/13 02:08:01;;;;;;;0.10;0.10;;;;;;;7.31;74.22;100110.78;7364132;19;20027;-61
2024/02/13 02:10:27;;;;;;;0.03;0.03;;;;;;;7.22;74.41;100093.63;7369624;19;20002;-61
2024/02/13 02:12:53;;;;;;;0.10;0.10;;;;;;;7.38;74.42;100114.94;7365215;19;20077;-61
2024/02/13 02:15:18;;;;;;;0.10;0.10;;;;;;;7.23;74.30;100090.13;7367387;19;20082;-60
2024/02/13 02:17:53;;;;;;;0.10;0.10;;;;;;;7.46;73.99;100125.22;7366928;19;20073;-61
2024/02/13 02:20:19;;;;;;;0.10;0.10;;;;;;;7.31;73.93;100105.56;7367559;19;20015;-61
2024/02/13 02:22:49;;;;;;;0.10;0.10;;;;;;;7.45;73.52;100121.75;7366884;19;20077;-61
2024/02/13 02:25:22;;;;;;;0.10;0.10;;;;;;;7.47;73.84;100119.97;7366876;19;20497;-61
2024/02/13 02:27:48;;;;;;;0.10;0.10;;;;;;;7.45;73.65;100119.16;7365937;19;20475;-61
2024/02/13 02:30:14;;;;;;;0.10;0.10;;;;;;;7.34;73.83;100097.72;7364853;19;20007;-61
2024/02/13 02:32:40;;;;;;;0.10;0.10;;;;;;;7.41;73.76;100109.72;7364322;19;20454;-61
2024/02/13 02:35:06;;;;;;;0.10;0.10;;;;;;;7.46;73.53;100120.88;7367062;19;20121;-61
2024/02/13 02:37:34;;;;;;;0.10;0.10;;;;;;;7.38;73.70;100122.75;7366384;19;20102;-61
2024/02/13 02:40:00;;;;;;;0.00;0.00;;;;;;;7.45;73.49;100137.34;7363903;19;20010;-61
2024/02/13 02:42:26;;;;;;;0.10;0.10;;;;;;;7.43;73.61;100133.03;7362758;19;20010;-61
2024/02/13 02:44:52;;;;;;;0.00;0.00;;;;;;;7.41;73.83;100138.28;7362285;19;20018;-61
2024/02/13 02:47:18;;;;;;;0.10;0.10;;;;;;;7.43;73.91;100133.91;7367078;19;20014;-61
2024/02/13 02:49:43;;;;;;;0.10;0.10;;;;;;;7.40;73.81;100133.97;7366249;19;20027;-61
2024/02/13 02:52:08;;;;;;;0.10;0.10;;;;;;;7.34;73.88;100122.81;7364613;19;20017;-61
2024/02/13 02:54:41;;;;;;;0.10;0.10;;;;;;;7.42;73.92;100140.00;7365013;19;20013;-61
2024/02/13 02:57:07;;;;;;;0.10;0.10;;;;;;;7.34;73.74;100118.47;7365903;19;20017;-61
2024/02/13 02:59:33;;;;;;;0.08;0.08;;;;;;;7.36;73.78;100121.06;7362581;19;20011;-61
2024/02/13 03:01:58;;;;;;;0.10;0.10;;;;;;;7.43;73.66;100133.91;7365748;19;20035;-60
2024/02/13 03:04:25;;;;;;;0.10;0.10;;;;;;;7.44;73.91;100135.59;7365515;19;20007;-61
2024/02/13 03:06:51;;;;;;;0.10;0.10;;;;;;;7.43;73.77;100133.91;7364404;19;20015;-61
2024/02/13 03:09:16;;;;;;;0.10;0.10;;;;;;;7.43;73.82;100133.91;7364087;19;20022;-61
2024/02/13 03:11:42;;;;;;;0.03;0.03;;;;;;;7.40;73.68;100128.78;7363464;19;20018;-61
2024/02/13 03:14:09;;;;;;;0.00;0.00;;;;;;;7.35;73.66;100125.41;7365118;19;20029;-61
2024/02/13 03:16:35;;;;;;;0.10;0.10;;;;;;;6.96;73.86;100065.53;7364979;19;20512;-62
2024/02/13 03:19:05;;;;;;;0.10;0.10;;;;;;;7.41;74.20;100140.03;7365793;19;20369;-61
2024/02/13 03:21:32;;;;;;;0.00;0.00;;;;;;;7.31;74.10;100131.56;7363997;19;20124;-61
2024/02/13 03:23:57;;;;;;;0.00;0.00;;;;;;;7.26;74.20;100116.03;7363319;19;20014;-61
2024/02/13 03:26:23;;;;;;;0.00;0.00;;;;;;;7.22;74.49;100100.53;7361117;19;20007;-61
2024/02/13 03:28:48;;;;;;;0.03;0.03;;;;;;;7.22;74.14;100097.94;7363934;19;20074;-61
2024/02/13 03:31:14;;;;;;;0.00;0.00;;;;;;;7.36;74.14;100119.34;7363959;19;20022;-61
2024/02/13 03:33:39;;;;;;;0.00;0.00;;;;;;;7.37;74.49;100126.22;7363208;19;20010;-61
2024/02/13 03:36:05;;;;;;;0.10;0.10;;;;;;;7.39;74.38;100127.03;7366439;19;20006;-61
2024/02/13 03:38:31;;;;;;;0.10;0.10;;;;;;;7.36;74.16;100121.94;7364867;19;20062;-61
2024/02/13 03:40:56;;;;;;;0.10;0.10;;;;;;;7.36;73.95;100121.94;7365839;19;20607;-61
2024/02/13 03:43:22;;;;;;;0.10;0.10;;;;;;;7.30;74.11;100116.84;7354808;19;20017;-61
2024/02/13 03:45:48;;;;;;;0.10;0.10;;;;;;;7.36;74.05;100134.91;7364044;19;20015;-62
2024/02/13 03:48:14;;;;;;;0.10;0.10;;;;;;;7.27;73.83;100122.09;7364737;19;20024;-61
2024/02/13 03:50:41;;;;;;;0.00;0.00;;;;;;;7.17;74.34;100099.78;7363883;19;20109;-61
2024/02/13 03:53:06;;;;;;;0.03;0.03;;;;;;;7.27;74.39;100116.91;7362872;19;20825;-61
2024/02/13 03:55:32;;;;;;;0.10;0.10;;;;;;;7.23;74.37;100110.91;7371051;19;20105;-61
2024/02/13 03:57:57;;;;;;;0.10;0.10;;;;;;;7.14;74.30;100099.81;7371175;19;19999;-61
2024/02/13 04:00:23;;;;;;;0.10;0.10;;;;;;;7.09;74.09;100091.25;7370472;19;19998;-61
2024/02/13 04:02:48;;;;;;;0.03;0.03;;;;;;;7.14;74.11;100098.06;7371766;19;20009;-61
2024/02/13 04:05:14;;;;;;;0.10;0.10;;;;;;;7.23;74.14;100117.84;7370741;19;20013;-61
2024/02/13 04:07:40;;;;;;;0.10;0.10;;;;;;;7.17;74.23;100104.97;7366331;19;20500;-61
2024/02/13 04:10:07;;;;;;;0.10;0.10;;;;;;;7.21;73.82;100112.69;7370242;19;20078;-61
2024/02/13 04:12:33;;;;;;;0.10;0.10;;;;;;;7.19;73.78;100113.56;7370854;19;20046;-61
2024/02/13 04:14:59;;;;;;;0.10;0.10;;;;;;;7.17;74.08;100110.16;7371371;19;20002;-61
2024/02/13 04:17:25;;;;;;;0.10;0.10;;;;;;;7.16;74.15;100108.47;7356062;19;20013;-61
2024/02/13 04:19:50;;;;;;;0.10;0.10;;;;;;;7.12;74.04;100096.41;7368210;19;20003;-61
2024/02/13 04:22:15;;;;;;;0.10;0.10;;;;;;;7.07;74.46;100087.84;7369735;19;20023;-61
2024/02/13 04:24:41;;;;;;;0.08;0.08;;;;;;;7.12;74.47;100101.59;7369186;19;19994;-61
2024/02/13 04:27:06;;;;;;;0.10;0.10;;;;;;;6.96;74.26;100075.91;7370887;19;20051;-61
2024/02/13 04:29:32;;;;;;;0.10;0.10;;;;;;;7.08;74.02;100099.94;7367874;19;19999;-61
2024/02/13 04:31:59;;;;;;;0.10;0.10;;;;;;;7.10;74.12;100108.56;7367050;19;20026;-61
2024/02/13 04:34:24;;;;;;;0.10;0.10;;;;;;;7.06;74.35;100086.13;7369462;19;20011;-61
2024/02/13 04:36:50;;;;;;;0.03;0.03;;;;;;;7.05;74.10;100092.22;7370143;19;20656;-61
2024/02/13 04:39:15;;;;;;;0.10;0.10;;;;;;;7.07;74.34;100093.03;7373784;19;20015;-61
2024/02/13 04:41:42;;;;;;;0.10;0.10;;;;;;;7.08;74.06;100097.34;7366354;19;20018;-61
2024/02/13 04:44:07;;;;;;;0.10;0.10;;;;;;;6.95;74.41;100079.41;7371399;19;20014;-61
2024/02/13 04:46:33;;;;;;;0.10;0.10;;;;;;;7.05;74.04;100100.00;7368857;19;20022;-61
2024/02/13 04:49:00;;;;;;;0.10;0.10;;;;;;;7.07;74.35;100104.28;7370716;19;20014;-61
2024/02/13 04:51:26;;;;;;;0.10;0.10;;;;;;;7.06;73.99;100097.38;7369060;19;20490;-61
2024/02/13 04:53:51;;;;;;;0.10;0.10;;;;;;;6.99;73.83;100087.97;7369375;19;20013;-61
2024/02/13 04:56:17;;;;;;;0.10;0.10;;;;;;;7.06;73.75;100096.53;7368421;19;20349;-61
2024/02/13 04:58:43;;;;;;;0.10;0.10;;;;;;;7.06;73.81;100099.13;7369938;19;20002;-61
2024/02/13 05:01:12;;;;;;;0.10;0.10;;;;;;;7.03;73.76;100092.22;7370926;19;20980;-61
2024/02/13 05:09:04;;;;;;;0.00;0.00;;;;;;;7.02;73.86;100098.31;7371804;19;20554;-61
2024/02/13 05:11:30;;;;;;;0.10;0.10;;;;;;;7.03;74.13;100108.66;7369325;19;20017;-61
2024/02/13 05:13:56;;;;;;;0.10;0.10;;;;;;;7.03;73.95;100111.25;7366478;19;20014;-61
2024/02/13 05:16:24;;;;;;;0.10;0.10;;;;;;;6.94;73.90;100090.66;7369791;19;20014;-61
2024/02/13 05:18:51;;;;;;;;;;;;;;;7.09;73.12;100101.66;7369731;19;20018;-62
2024/02/13 05:21:20;;;;;;;0.10;0.10;;;;;;;7.06;73.91;100096.53;7368033;19;19922;-61
2024/02/13 05:23:50;;;;;;;0.10;0.10;;;;;;;6.92;74.10;100073.41;7366780;19;20010;-61
2024/02/13 05:26:17;;;;;;;0.10;0.10;;;;;;;7.07;74.15;100099.09;7368729;19;20486;-61
2024/02/13 05:28:43;;;;;;;;;;;;;;;7.10;73.05;100090.41;7370762;19;20010;-60
2024/02/13 05:31:08;;;;;;;0.00;0.00;;;;;;;6.99;73.92;100086.25;7365109;19;20350;-61
2024/02/13 05:33:35;;;;;;;0.10;0.10;;;;;;;7.06;73.91;100096.53;7366999;19;20402;-61
2024/02/13 05:36:04;;;;;;;0.10;0.10;;;;;;;7.04;74.28;100099.13;7366566;19;20018;-61
2024/02/13 05:38:35;;;;;;;0.10;0.10;;;;;;;7.05;74.05;100098.28;7367930;19;20772;-61
2024/02/13 05:41:01;;;;;;;0.10;0.10;;;;;;;7.02;74.13;100096.56;7369314;19;20572;-61
2024/02/13 05:43:26;;;;;;;0.10;0.10;;;;;;;7.00;73.83;100092.31;7369153;19;20081;-61
2024/02/13 05:45:52;;;;;;;0.10;0.10;;;;;;;6.93;74.16;100090.69;7368775;19;20013;-61
2024/02/13 05:48:18;;;;;;;0.10;0.10;;;;;;;7.02;74.22;100099.16;7366646;19;20010;-61
2024/02/13 05:50:46;;;;;;;0.10;0.10;;;;;;;7.03;74.27;100102.63;7367691;19;20011;-61
2024/02/13 05:53:11;;;;;;;0.00;0.00;;;;;;;6.93;73.83;100086.34;7364706;19;20835;-61
2024/02/13 05:55:37;;;;;;;0.10;0.10;;;;;;;7.04;73.84;100104.31;7368992;19;19998;-61
2024/02/13 05:58:02;;;;;;;0.00;0.00;;;;;;;6.80;74.07;100064.09;7367619;19;20010;-60
2024/02/13 06:00:28;;;;;;;0.10;0.10;;;;;;;7.02;74.15;100096.56;7367245;19;19994;-61
2024/02/13 06:02:54;;;;;;;0.10;0.10;;;;;;;6.87;73.94;100076.06;7367118;19;20944;-60
2024/02/13 06:05:21;;;;;;;0.10;0.10;;;;;;;7.05;73.84;100098.28;7366110;19;20359;-61
2024/02/13 06:07:46;;;;;;;0.08;0.08;;;;;;;7.05;74.06;100107.81;7363771;19;20025;-59
2024/02/13 06:10:12;;;;;;;0.10;0.10;;;;;;;6.96;74.49;100091.50;7368533;19;20345;-61
2024/02/13 06:12:38;;;;;;;0.10;0.10;;;;;;;7.05;74.15;100098.28;7365786;19;20002;-61
2024/02/13 06:15:05;;;;;;;0.10;0.10;;;;;;;6.99;74.19;100095.75;7367818;19;20374;-61
2024/02/13 06:17:31;;;;;;;0.00;0.00;;;;;;;7.07;74.40;100103.44;7364967;19;20003;-61
2024/02/13 06:20:02;;;;;;;0.10;0.10;;;;;;;7.08;74.56;100105.13;7368427;19;20041;-61
2024/02/13 06:22:27;;;;;;;0.10;0.10;;;;;;;6.98;74.02;100089.72;7366563;19;20382;-62
2024/02/13 06:24:52;;;;;;;0.00;0.00;;;;;;;6.78;74.50;100050.28;7366744;19;20006;-61
2024/02/13 06:27:18;;;;;;;0.10;0.10;;;;;;;7.05;74.18;100089.63;7365415;19;20016;-61
2024/02/13 06:29:44;;;;;;;0.10;0.10;;;;;;;7.05;74.15;100090.47;7365263;19;20013;-62
2024/02/13 06:32:10;;;;;;;0.10;0.10;;;;;;;6.67;74.48;100026.28;7363270;19;20038;-61
2024/02/13 06:34:36;;;;;;;0.10;0.10;;;;;;;6.60;74.08;100006.53;7364497;19;20041;-61
2024/02/13 06:37:01;;;;;;;0.00;0.00;;;;;;;6.90;74.23;100060.47;7367194;19;20633;-61
2024/02/13 06:39:27;;;;;;;0.10;0.10;;;;;;;6.91;74.27;100062.16;7365509;19;20014;-61
2024/02/13 06:41:53;;;;;;;0.00;0.00;;;;;;;6.93;74.50;100065.56;7368019;19;20028;-61
2024/02/13 06:44:22;;;;;;;0.10;0.10;;;;;;;6.91;74.22;100062.16;7364627;19;20010;-61
2024/02/13 06:46:47;;;;;;;0.05;0.05;;;;;;;7.06;73.88;100086.13;7366438;19;20022;-61
2024/02/13 06:49:13;;;;;;;0.08;0.08;;;;;;;7.01;74.37;100084.47;7364890;19;20014;-61
2024/02/13 06:51:38;;;;;;;0.10;0.10;;;;;;;6.96;74.15;100075.91;7362959;19;20027;-61
2024/02/13 06:54:04;;;;;;;0.10;0.10;;;;;;;6.99;74.20;100075.88;7364254;19;20018;-61
2024/02/13 06:56:30;;;;;;;0.10;0.10;;;;;;;7.00;74.37;100081.91;7365276;19;20011;-61
2024/02/13 06:58:55;;;;;;;0.00;0.00;;;;;;;7.03;74.46;100087.88;7363495;19;20002;-59
2024/02/13 07:01:23;;;;;;;0.10;0.10;;;;;;;7.03;74.29;100082.69;7365547;19;20015;-61
2024/02/13 07:03:48;;;;;;;;;;;;;;;7.06;73.73;100092.19;7364948;19;20799;-61
2024/02/13 07:06:17;;;;;;;0.10;0.10;;;;;;;7.00;73.84;100087.97;7363412;19;19929;-61
2024/02/13 07:08:43;;;;;;;0.10;0.10;;;;;;;6.86;74.18;100064.00;7364656;19;20030;-61
2024/02/13 07:11:08;;;;;;;0.00;0.00;;;;;;;6.84;74.49;100064.88;7363557;19;20110;-61
2024/02/13 07:13:34;;;;;;;0.10;0.10;;;;;;;6.84;74.10;100068.34;7362889;19;20002;-61
2024/02/13 07:15:59;;;;;;;0.00;0.00;;;;;;;6.69;74.50;100046.13;7365071;19;20028;-61
2024/02/13 07:18:24;;;;;;;0.10;0.10;;;;;;;6.83;74.71;100064.03;7364661;19;20011;-61
2024/02/13 07:20:50;;;;;;;0.05;0.05;;;;;;;6.94;74.48;100085.44;7366894;19;20822;-61
2024/02/13 07:23:15;;;;;;;0.10;0.10;;;;;;;6.93;74.35;100086.34;7365109;19;20015;-61
2024/02/13 07:25:40;;;;;;;0.10;0.10;;;;;;;6.92;74.41;100084.63;7364118;19;20025;-61
2024/02/13 07:28:06;;;;;;;0.03;0.03;;;;;;;6.86;74.54;100081.31;7365708;19;20007;-61
2024/02/13 07:30:31;;;;;;;0.10;0.10;;;;;;;6.81;74.37;100076.19;7370424;19;20749;-61
2024/02/13 07:32:57;;;;;;;0.10;0.10;;;;;;;6.87;74.52;100086.47;7371092;19;20029;-61
2024/02/13 07:35:22;;;;;;;0.10;0.10;;;;;;;6.83;74.78;100082.19;7371162;19;20040;-61
2024/02/13 07:37:48;;;;;;;0.10;0.10;;;;;;;6.85;74.55;100090.84;7371651;19;20426;-61
2024/02/13 07:40:14;;;;;;;0.00;0.00;;;;;;;6.86;74.91;100089.94;7371265;19;20010;-61
2024/02/13 07:42:39;;;;;;;0.10;0.10;;;;;;;6.86;74.81;100089.09;7369536;19;20023;-62
2024/02/13 07:45:05;;;;;;;0.00;0.00;;;;;;;6.82;74.70;100082.22;7371324;19;20016;-61
2024/02/13 07:47:31;;;;;;;0.10;0.10;;;;;;;6.82;75.11;100088.28;7371246;19;20010;-61
2024/02/13 07:49:59;;;;;;;0.10;0.10;;;;;;;6.82;74.97;100088.28;7369838;19;20062;-61
2024/02/13 07:52:25;;;;;;;0.10;0.10;;;;;;;6.83;74.86;100096.91;7370128;19;20018;-60
2024/02/13 07:54:51;;;;;;;0.10;0.10;;;;;;;6.75;75.13;100086.69;7370376;19;20965;-62
2024/02/13 07:57:17;;;;;;;0.10;0.10;;;;;;;6.77;74.91;100090.09;7370330;19;20588;-61
2024/02/13 07:59:43;;;;;;;0.10;0.10;;;;;;;6.81;74.91;100098.69;7371071;19;20006;-61
2024/02/13 08:02:12;;;;;;;0.10;0.10;;;;;;;6.70;74.92;100084.16;7367775;19;20054;-61
2024/02/13 08:04:38;;;;;;;0.10;0.10;;;;;;;6.80;74.98;100095.25;7365744;19;20395;-61
2024/02/13 08:07:04;;;;;;;0.10;0.10;;;;;;;6.80;75.07;100097.84;7370310;19;20029;-61
2024/02/13 08:09:30;;;;;;;0.10;0.10;;;;;;;6.77;75.12;100100.47;7369528;19;20035;-61
2024/02/13 08:11:55;;;;;;;0.10;0.10;;;;;;;6.75;75.04;100102.25;7369438;19;20010;-61
2024/02/13 08:14:21;;;;;;;0.10;0.10;;;;;;;6.79;74.86;100109.06;7365852;19;20029;-61
2024/02/13 08:16:46;;;;;;;0.10;0.10;;;;;;;6.68;74.89;100091.09;7371833;19;20017;-60
2024/02/13 08:19:12;;;;;;;0.10;0.10;;;;;;;6.64;75.10;100084.28;7370849;19;20044;-61
2024/02/13 08:21:40;;;;;;;0.05;0.05;;;;;;;6.80;75.24;100108.22;7371113;19;20014;-62
2024/02/13 08:24:08;;;;;;;0.10;0.10;;;;;;;6.57;74.93;100068.81;7364197;19;20015;-62
2024/02/13 08:26:34;;;;;;;0.00;0.00;;;;;;;6.74;75.13;100100.50;7368163;19;20037;-61
2024/02/13 08:28:59;;;;;;;0.05;0.05;;;;;;;6.63;74.99;100082.53;7369279;19;20036;-61
2024/02/13 08:31:25;;;;;;;0.10;0.10;;;;;;;6.75;75.33;100097.06;7365760;19;20014;-61
2024/02/13 08:33:51;;;;;;;0.10;0.10;;;;;;;6.82;74.85;100109.03;7371192;19;20031;-61
2024/02/13 08:36:18;;;;;;;0.10;0.10;;;;;;;6.80;74.98;100099.59;7368744;19;20663;-61
2024/02/13 08:38:44;;;;;;;0.00;0.00;;;;;;;6.74;75.12;100079.75;7370492;19;20475;-61
2024/02/13 08:41:13;;;;;;;0.10;0.10;;;;;;;6.85;75.14;100092.56;7363578;19;20475;-61
2024/02/13 08:43:39;;;;;;;0.10;0.10;;;;;;;6.94;75.43;100093.25;7368731;19;20608;-61
2024/02/13 08:46:05;;;;;;;0.10;0.10;;;;;;;6.87;75.21;100076.06;7367554;19;20010;-61
2024/02/13 08:48:30;;;;;;;0.00;0.00;;;;;;;7.06;75.21;100092.19;7362088;19;20775;-61
2024/02/13 08:50:56;;;;;;;0.10;0.10;;;;;;;7.12;74.89;100096.41;7367692;19;19999;-61
2024/02/13 08:53:23;;;;;;;0.10;0.10;;;;;;;7.19;74.82;100090.22;7367585;19;20037;-61
2024/02/13 08:55:49;;;;;;;0.10;0.10;;;;;;;6.86;75.02;100025.06;7366319;19;19999;-61
2024/02/13 08:58:15;;;;;;;0.10;0.10;;;;;;;7.31;74.85;100087.41;7364529;19;20014;-61
2024/02/13 09:00:40;;;;;;;0.03;0.03;;;;;;;7.23;74.93;100063.31;7365782;19;20825;-61
2024/02/13 09:03:06;;;;;;;0.10;0.10;;;;;;;7.43;74.77;100081.09;7362204;19;20006;-62
2024/02/13 09:05:31;;;;;;;0.10;0.10;;;;;;;7.48;74.50;100081.84;7371861;19;20032;-61
2024/02/13 09:07:57;;;;;;;0.10;0.10;;;;;;;7.52;74.42;100081.78;7365835;19;20002;-60
2024/02/13 09:10:22;;;;;;;0.10;0.10;;;;;;;7.47;74.80;100068.03;7369765;19;20014;-61
2024/02/13 09:12:47;;;;;;;0.10;0.10;;;;;;;7.63;74.30;100078.09;7364491;19;19994;-61
2024/02/13 09:15:13;;;;;;;0.10;0.10;;;;;;;7.67;74.53;100079.75;7362248;19;20010;-61
2024/02/13 09:17:41;;;;;;;0.10;0.10;;;;;;;7.49;74.30;100035.06;7367570;19;20442;-61
2024/02/13 09:20:06;;;;;;;;;;;;;;;7.82;74.41;100071.63;7369318;19;20094;-61
2024/02/13 09:22:32;;;;;;;0.00;0.00;;;;;;;7.84;73.88;100072.44;7365963;19;20353;-60
2024/02/13 09:24:57;;;;;;;0.10;0.10;;;;;;;7.89;73.89;100070.59;7361098;19;20011;-61
2024/02/13 09:27:23;;;;;;;0.10;0.10;;;;;;;7.95;73.91;100069.59;7363098;19;20025;-60
2024/02/13 09:29:48;;;;;;;0.00;0.00;;;;;;;7.88;73.87;100047.25;7365347;19;20070;-61
2024/02/13 09:32:14;;;;;;;0.10;0.10;;;;;;;8.00;73.68;100059.97;7364338;19;20018;-61
2024/02/13 09:34:40;;;;;;;0.00;0.00;;;;;;;7.93;73.69;100037.59;7364340;19;20037;-61
2024/02/13 09:37:08;;;;;;;0.00;0.00;;;;;;;8.15;73.44;100061.34;7368836;19;20470;-61
2024/02/13 09:39:34;;;;;;;0.10;0.10;;;;;;;8.23;73.31;100065.50;7367205;19;20014;-61
2024/02/13 09:41:59;;;;;;;0.05;0.05;;;;;;;8.23;73.50;100049.91;7364327;19;20017;-62
2024/02/13 09:44:25;;;;;;;0.10;0.10;;;;;;;8.25;73.12;100047.25;7367944;19;20007;-61
2024/02/13 09:46:53;;;;;;;0.05;0.05;;;;;;;8.41;73.30;100059.03;7365359;19;20413;-61
2024/02/13 09:49:21;;;;;;;0.10;0.10;;;;;;;8.51;73.20;100064.88;7365592;19;20043;-61
2024/02/13 09:51:50;;;;;;;0.10;0.10;;;;;;;8.48;73.30;100050.19;7364249;19;20003;-61
2024/02/13 09:54:18;;;;;;;0.10;0.10;;;;;;;8.56;73.11;100048.25;7366809;19;20028;-61
2024/02/13 09:56:45;;;;;;;0.10;0.10;;;;;;;8.67;72.88;100054.94;7366114;19;20025;-61
2024/02/13 09:59:11;;;;;;;0.10;0.10;;;;;;;8.72;72.71;100040.06;7363232;19;20027;-60
2024/02/13 10:01:37;;;;;;;0.10;0.10;;;;;;;8.77;72.89;100041.66;7365011;19;20030;-61
2024/02/13 10:04:03;;;;;;;0.08;0.08;;;;;;;8.83;72.56;100033.69;7365845;19;20660;-61
2024/02/13 10:06:29;;;;;;;0.10;0.10;;;;;;;8.89;72.69;100034.41;7365869;19;20089;-61
2024/02/13 10:08:55;;;;;;;0.00;0.00;;;;;;;8.94;72.61;100030.78;7369848;19;20082;-61
2024/02/13 10:11:31;;;;;;;0.10;0.10;;;;;;;9.04;72.42;100027.03;7360898;19;20011;-61
2024/02/13 10:13:56;;;;;;;0.10;0.10;;;;;;;9.03;72.38;100022.75;7368042;19;20010;-61
2024/02/13 10:16:23;;;;;;;0.10;0.10;;;;;;;9.13;72.45;100022.50;7366515;19;20033;-61
2024/02/13 10:18:54;;;;;;;0.10;0.10;;;;;;;9.21;72.19;100020.50;7368172;19;20094;-60
2024/02/13 10:21:25;;;;;;;0.10;0.10;;;;;;;9.17;72.12;100018.88;7368735;19;20015;-61
2024/02/13 10:23:53;;;;;;;0.10;0.10;;;;;;;9.28;72.03;100028.13;7363457;19;20010;-61
2024/02/13 10:26:22;;;;;;;0.10;0.10;;;;;;;9.32;71.85;100023.66;7365627;19;20017;-61
2024/02/13 10:28:54;;;;;;;0.10;0.10;;;;;;;9.38;71.75;100025.25;7361087;19;20015;-61
2024/02/13 10:31:26;;;;;;;0.10;0.10;;;;;;;9.39;72.15;100009.59;7364181;19;20086;-61
2024/02/13 10:33:54;;;;;;;0.10;0.10;;;;;;;9.52;71.93;100023.94;7363760;19;20026;-61
2024/02/13 10:36:20;;;;;;;0.10;0.10;;;;;;;9.56;72.07;100019.50;7368179;19;20716;-61
2024/02/13 10:38:48;;;;;;;0.10;0.10;;;;;;;9.66;71.68;100027.91;7363640;19;20003;-60
2024/02/13 10:41:21;;;;;;;;;;;;;;;9.77;71.96;100025.81;7367680;19;20007;-60
2024/02/13 10:43:50;;;;;;;0.10;0.10;;;;;;;9.77;71.49;100025.81;7362974;19;19919;-61
2024/02/13 10:46:18;;;;;;;0.10;0.10;;;;;;;9.68;71.63;100013.06;7366471;19;20503;-61
2024/02/13 10:49:17;;;;;;;0.10;0.10;;;;;;;9.85;71.96;100021.25;7364069;19;20011;-61
2024/02/13 10:51:44;;;;;;;0.05;0.05;;;;;;;9.82;71.69;100019.56;7359007;19;20032;-61
2024/02/13 10:54:12;;;;;;;0.10;0.10;;;;;;;9.93;71.83;100021.84;7365713;19;20006;-61
2024/02/13 10:56:38;;;;;;;;;;;;;;;10.04;71.74;100025.00;7365294;19;20556;-61
2024/02/13 10:59:06;;;;;;;0.10;0.10;;;;;;;10.05;71.40;100026.69;7362556;19;19974;-61
2024/02/13 11:01:34;;;;;;;;;;;;;;;10.14;71.65;100030.78;7363100;19;20010;-60
2024/02/13 11:04:02;;;;;;;0.10;0.10;;;;;;;10.13;71.71;100032.50;7363262;19;19915;-61
2024/02/13 11:06:27;;;;;;;0.08;0.08;;;;;;;10.05;71.25;100016.25;7359689;19;20002;-61
2024/02/13 11:08:54;;;;;;;0.10;0.10;;;;;;;10.19;71.45;100028.00;7361926;19;20596;-61
2024/02/13 11:11:23;;;;;;;0.10;0.10;;;;;;;10.25;71.73;100022.66;7361297;19;20014;-61
2024/02/13 11:13:49;;;;;;;0.05;0.05;;;;;;;10.26;71.49;100024.34;7361116;19;20031;-61
2024/02/13 11:16:17;;;;;;;0.10;0.10;;;;;;;10.30;71.50;100028.56;7362465;19;20541;-61
2024/02/13 11:18:48;;;;;;;0.10;0.10;;;;;;;10.36;71.84;100010.09;7352529;19;20015;-61
2024/02/13 11:21:21;;;;;;;0.10;0.10;;;;;;;10.34;71.53;100007.53;7364147;19;20119;-61
2024/02/13 11:24:00;;;;;;;0.10;0.10;;;;;;;10.48;71.51;100020.13;7365673;19;20006;-61
2024/02/13 11:26:34;;;;;;;0.10;0.10;;;;;;;10.59;71.40;100023.25;7362959;19;20014;-61
2024/02/13 11:29:14;;;;;;;0.10;0.10;;;;;;;10.65;71.42;100004.75;7360660;19;20451;-61
2024/02/13 11:31:41;;;;;;;0.20;0.20;;;;;;;10.71;71.03;100023.72;7361754;19;20046;-61
2024/02/13 11:34:10;;;;;;;0.10;0.10;;;;;;;10.80;71.08;100018.19;7363232;19;20017;-61
2024/02/13 11:36:39;;;;;;;0.00;0.00;;;;;;;10.79;70.90;100006.03;7364202;19;20011;-60